Time;durP1;ratioP1;P1;durP2;ratioP2;P2;SDS_P1;SDS_P2;PMS_P1;PMS_P2;Temp;Humidity;BMP_temperature;BMP_pressure;BME280_temperature;BME280_humidity;BME280_pressure;Samples;Min_cycle;Max_cycle;Signal;HPM_P1;HPM_P2
2021/07/21 00:02:04;;;;;;;13.55;8.20;;;;;;;15.85;91.04;98310.55;1728188;82;20911;-73
2021/07/21 00:04:30;;;;;;;11.28;8.38;;;;;;;15.87;90.45;98306.39;1727921;82;21486;-73
2021/07/21 00:06:56;;;;;;;16.62;8.68;;;;;;;15.88;89.69;98312.66;1728221;83;20914;-72
2021/07/21 00:09:22;;;;;;;16.30;9.53;;;;;;;15.87;89.75;98303.66;1728007;83;20848;-75
2021/07/21 00:14:33;;;;;;;16.02;9.95;;;;;;;15.89;88.65;98309.62;1727631;82;20935;-72
2021/07/21 00:17:03;;;;;;;13.18;8.73;;;;;;;15.91;88.54;98306.05;1728303;82;20852;-73
2021/07/21 00:22:14;;;;;;;14.40;8.53;;;;;;;16.02;88.52;98314.81;1727960;82;21010;-73
2021/07/21 00:24:41;;;;;;;10.58;8.35;;;;;;;16.01;88.82;98303.64;1728061;83;21147;-74
2021/07/21 00:27:09;;;;;;;11.97;8.53;;;;;;;15.94;88.54;98299.95;1728052;82;21029;-74
2021/07/21 00:29:35;;;;;;;12.95;8.45;;;;;;;15.89;89.04;98302.78;1727914;82;21372;-74
2021/07/21 00:32:02;;;;;;;13.15;8.28;;;;;;;15.86;88.56;98303.97;1728226;83;20883;-72
2021/07/21 00:34:28;;;;;;;12.82;8.48;;;;;;;15.82;88.47;98305.72;1727925;83;21031;-74
2021/07/21 00:36:54;;;;;;;13.68;9.20;;;;;;;15.82;88.63;98311.98;1728127;83;21289;-72
2021/07/21 00:39:20;;;;;;;14.40;8.50;;;;;;;15.81;89.11;98313.11;1728041;82;21505;-74
2021/07/21 00:41:46;;;;;;;11.65;8.08;;;;;;;15.89;88.97;98309.62;1728071;82;20883;-72
2021/07/21 00:44:13;;;;;;;12.63;7.87;;;;;;;15.94;88.65;98314.18;1707195;83;20967;-74
2021/07/21 00:46:39;;;;;;;14.25;8.33;;;;;;;15.97;88.63;98312.19;1728426;82;21148;-72
2021/07/21 00:49:06;;;;;;;17.10;9.00;;;;;;;16.01;88.55;98305.00;1728121;82;21322;-72
2021/07/21 00:51:33;;;;;;;14.05;9.53;;;;;;;16.05;88.32;98304.06;1728114;82;20978;-73
2021/07/21 00:54:00;;;;;;;13.20;8.15;;;;;;;16.05;88.25;98304.62;1728050;83;20955;-75
2021/07/21 00:56:26;;;;;;;13.10;9.00;;;;;;;16.06;88.19;98308.44;1728153;82;21030;-73
2021/07/21 00:58:52;;;;;;;16.02;8.90;;;;;;;16.10;88.09;98311.35;1728224;82;22439;-73
2021/07/21 01:01:18;;;;;;;13.10;8.23;;;;;;;16.16;88.11;98312.05;1728268;83;21144;-73
2021/07/21 01:03:44;;;;;;;10.55;8.43;;;;;;;16.21;87.92;98312.72;1728162;83;20883;-75
2021/07/21 01:06:10;;;;;;;12.60;8.45;;;;;;;16.21;87.73;98313.28;1728193;83;21611;-73
2021/07/21 01:08:36;;;;;;;16.80;9.63;;;;;;;16.14;87.54;98311.53;1727930;82;21022;-75
2021/07/21 01:11:16;;;;;;;14.80;8.33;;;;;;;16.11;87.48;98311.59;1728242;83;20859;-73
2021/07/21 01:14:06;;;;;;;15.60;8.83;;;;;;;16.12;87.29;98310.48;1728190;82;22062;-73
2021/07/21 01:16:34;;;;;;;12.45;8.95;;;;;;;16.07;86.92;98308.69;1728092;83;20983;-74
2021/07/21 01:19:17;;;;;;;10.60;8.15;;;;;;;15.99;86.74;98306.69;1728332;83;20962;-73
2021/07/21 01:22:16;;;;;;;13.50;8.30;;;;;;;15.96;86.61;98307.28;1728218;83;20947;-76
2021/07/21 01:25:13;;;;;;;15.03;7.70;;;;;;;15.92;86.81;98304.12;1727902;83;20919;-72
2021/07/21 01:27:49;;;;;;;10.85;7.10;;;;;;;15.89;86.80;98306.88;1728168;82;21832;-74
2021/07/21 01:30:17;;;;;;;11.10;7.85;;;;;;;15.84;87.18;98304.84;1728109;83;20959;-74
2021/07/21 01:32:49;;;;;;;11.45;7.53;;;;;;;15.69;87.51;98310.08;1728103;82;20959;-73
2021/07/21 01:35:26;;;;;;;12.88;8.00;;;;;;;15.62;87.95;98305.58;1728160;83;21462;-72
2021/07/21 01:37:58;;;;;;;11.75;7.58;;;;;;;15.55;88.66;98307.88;1728041;83;20911;-73
2021/07/21 01:40:27;;;;;;;9.68;7.33;;;;;;;15.60;89.01;98296.30;1728073;82;21116;-72
2021/07/21 01:42:58;;;;;;;11.35;8.00;;;;;;;15.59;88.68;98297.41;1728032;83;20903;-75
2021/07/21 01:45:29;;;;;;;12.65;8.18;;;;;;;15.63;88.35;98297.62;1728385;82;20923;-72
2021/07/21 01:47:55;;;;;;;14.23;7.50;;;;;;;15.70;88.23;98302.13;1728042;83;20907;-72
2021/07/21 01:50:21;;;;;;;11.45;8.13;;;;;;;15.77;88.02;98299.79;1707525;83;21364;-74
2021/07/21 01:52:48;;;;;;;9.85;7.70;;;;;;;15.83;87.88;98301.87;1728684;82;21127;-74
2021/07/21 01:55:16;;;;;;;10.58;7.50;;;;;;;15.89;87.79;98294.59;1728167;83;21454;-75
2021/07/21 01:57:43;;;;;;;10.53;8.33;;;;;;;15.95;87.69;98294.73;1728289;82;21333;-74
2021/07/21 02:00:11;;;;;;;11.53;7.25;;;;;;;15.97;87.42;98297.16;1728095;83;21018;-76
2021/07/21 02:02:38;;;;;;;15.45;7.90;;;;;;;15.95;87.56;98296.10;1728268;83;21058;-73
2021/07/21 02:05:06;;;;;;;13.88;9.18;;;;;;;15.91;87.45;98297.84;1728151;83;21306;-76
2021/07/21 02:07:32;;;;;;;12.25;8.10;;;;;;;15.88;87.48;98295.71;1728421;83;21399;-74
2021/07/21 02:09:58;;;;;;;17.37;9.45;;;;;;;15.85;87.41;98300.99;1727979;83;21022;-73
2021/07/21 02:12:24;;;;;;;13.38;8.10;;;;;;;15.82;87.22;98298.89;1728168;82;20828;-73
2021/07/21 02:14:50;;;;;;;12.25;7.40;;;;;;;15.74;87.61;98300.41;1728102;82;21632;-73
2021/07/21 02:17:16;;;;;;;10.50;7.47;;;;;;;15.76;87.50;98306.38;1728678;82;21097;-76
2021/07/21 02:19:43;;;;;;;14.40;9.13;;;;;;;15.72;87.72;98304.83;1728088;82;21324;-73
2021/07/21 02:22:09;;;;;;;12.05;6.92;;;;;;;15.73;87.83;98300.97;1728405;83;20975;-73
2021/07/21 02:24:35;;;;;;;14.28;7.92;;;;;;;15.74;87.89;98294.95;1707658;83;20847;-73
2021/07/21 02:27:01;;;;;;;10.50;7.50;;;;;;;15.62;87.80;98300.92;1728090;82;20899;-73
2021/07/21 02:29:26;;;;;;;12.43;7.87;;;;;;;15.56;88.00;98308.95;1728194;83;21839;-75
2021/07/21 02:32:15;;;;;;;11.63;7.83;;;;;;;15.53;88.24;98315.81;1728715;82;20858;-75
2021/07/21 02:34:44;;;;;;;;;;;;;;;15.52;88.08;98314.20;1730666;83;21014;-74
2021/07/21 02:37:15;;;;;;;;;;;;;;;15.60;88.16;98315.97;1731221;83;20140;-73
2021/07/21 02:39:43;;;;;;;12.25;7.50;;;;;;;15.65;88.18;98318.08;1728149;82;20430;-73
2021/07/21 02:42:11;;;;;;;17.42;7.65;;;;;;;15.70;87.86;98316.59;1728173;82;21307;-75
2021/07/21 02:44:36;;;;;;;12.68;7.97;;;;;;;15.74;87.77;98312.70;1728063;82;20907;-75
2021/07/21 02:47:03;;;;;;;12.40;7.28;;;;;;;15.77;87.62;98314.81;1728663;82;20874;-73
2021/07/21 02:49:29;;;;;;;8.73;6.72;;;;;;;15.78;87.64;98310.97;1728275;82;20963;-72
2021/07/21 02:52:23;;;;;;;10.90;6.60;;;;;;;15.81;87.65;98317.20;1728424;82;20918;-75
2021/07/21 02:55:13;;;;;;;11.70;7.65;;;;;;;15.83;87.56;98312.80;1727967;83;21755;-75
2021/07/21 02:57:46;;;;;;;15.83;9.00;;;;;;;15.84;87.70;98319.31;1728045;82;20968;-74
2021/07/21 03:00:15;;;;;;;10.32;6.78;;;;;;;15.82;87.85;98316.09;1708192;83;20952;-75
2021/07/21 03:02:41;;;;;;;12.53;7.40;;;;;;;15.82;88.20;98324.84;1728022;82;21325;-75
2021/07/21 03:05:10;;;;;;;11.12;8.28;;;;;;;15.77;88.03;98325.75;1727825;83;21030;-75
2021/07/21 03:07:42;;;;;;;10.95;7.70;;;;;;;15.66;88.14;98325.72;1728188;83;21313;-73
2021/07/21 03:10:10;;;;;;;17.12;9.20;;;;;;;15.61;89.64;98327.98;1727938;82;20982;-73
2021/07/21 03:12:38;;;;;;;11.15;8.58;;;;;;;15.56;89.29;98325.34;1708272;83;20907;-73
2021/07/21 03:15:06;;;;;;;13.20;8.25;;;;;;;15.56;88.87;98331.36;1728092;82;20946;-76
2021/07/21 03:17:35;;;;;;;13.20;7.65;;;;;;;15.55;89.00;98336.55;1728838;82;20915;-73
2021/07/21 03:20:03;;;;;;;12.23;6.80;;;;;;;15.55;89.00;98336.55;1728192;82;21128;-76
2021/07/21 03:22:29;;;;;;;10.78;6.72;;;;;;;15.61;88.99;98339.47;1728125;83;21010;-76
2021/07/21 03:24:55;;;;;;;14.10;7.47;;;;;;;15.65;88.70;98339.13;1728237;82;20915;-76
2021/07/21 03:27:21;;;;;;;12.13;6.87;;;;;;;15.66;88.51;98336.09;1728015;83;21442;-73
2021/07/21 03:29:50;;;;;;;12.00;6.42;;;;;;;15.68;88.36;98342.05;1728725;82;21018;-76
2021/07/21 03:32:23;;;;;;;8.78;6.50;;;;;;;15.69;88.19;98343.66;1728345;83;21304;-73
2021/07/21 03:34:49;;;;;;;10.58;6.30;;;;;;;15.70;88.15;98343.10;1728001;82;21015;-75
2021/07/21 03:37:15;;;;;;;10.18;6.65;;;;;;;15.60;87.92;98348.19;1728200;82;20981;-73
2021/07/21 03:39:41;;;;;;;12.10;6.78;;;;;;;15.60;88.16;98347.38;1728023;83;20847;-72
2021/07/21 03:42:07;;;;;;;15.72;8.03;;;;;;;15.65;88.52;98356.33;1733220;82;20966;-76
2021/07/21 03:44:33;;;;;;;12.15;7.30;;;;;;;15.73;88.35;98353.44;1715286;82;21192;-74
2021/07/21 03:46:59;;;;;;;7.70;5.60;;;;;;;15.78;88.13;98353.31;1736333;82;21608;-73
2021/07/21 03:49:27;;;;;;;6.80;5.28;;;;;;;15.81;87.94;98362.28;1736376;81;20959;-75
2021/07/21 03:51:53;;;;;;;7.90;5.80;;;;;;;15.81;87.57;98366.38;1736263;82;20966;-73
2021/07/21 03:54:19;;;;;;;9.80;6.58;;;;;;;15.82;87.44;98369.92;1736435;82;20945;-73
2021/07/21 03:56:45;;;;;;;11.05;7.42;;;;;;;15.75;87.12;98361.58;1736398;82;21321;-73
2021/07/21 03:59:15;;;;;;;10.88;7.70;;;;;;;15.69;87.11;98364.70;1736269;82;21002;-73
2021/07/21 04:01:39;;;;;;;11.00;7.33;;;;;;;15.70;87.08;98365.77;1736450;82;21088;-73
2021/07/21 04:04:05;;;;;;;9.35;6.67;;;;;;;15.71;86.89;98366.02;1736279;82;20839;-72
2021/07/21 04:06:34;;;;;;;9.73;6.83;;;;;;;15.76;87.37;98368.65;1736897;82;20902;-75
2021/07/21 04:09:07;;;;;;;10.28;6.40;;;;;;;15.77;87.00;98364.80;1736543;82;21135;-73
2021/07/21 04:11:36;;;;;;;7.10;5.92;;;;;;;15.76;87.22;98365.11;1736262;82;20962;-74
2021/07/21 04:14:03;;;;;;;;;;;;;;;15.73;87.33;98372.00;1738914;82;20963;-75
2021/07/21 04:16:32;;;;;;;9.50;5.95;;;;;;;15.77;87.69;98371.63;1736458;81;20163;-73
2021/07/21 04:18:58;;;;;;;8.70;6.50;;;;;;;15.87;87.46;98373.90;1736384;81;20967;-73
2021/07/21 04:21:24;;;;;;;13.22;6.28;;;;;;;15.95;87.17;98376.72;1736491;82;21266;-73
2021/07/21 04:23:51;;;;;;;11.03;5.47;;;;;;;15.94;87.02;98377.03;1736234;82;20862;-73
2021/07/21 04:26:17;;;;;;;12.70;5.87;;;;;;;16.00;87.05;98384.83;1715296;82;21056;-76
2021/07/21 04:28:43;;;;;;;10.28;6.03;;;;;;;16.04;86.91;98384.45;1736312;81;20981;-76
2021/07/21 04:31:08;;;;;;;8.90;7.03;;;;;;;16.13;86.79;98385.09;1736393;82;20886;-75
2021/07/21 04:33:34;;;;;;;9.45;6.15;;;;;;;16.04;86.60;98385.81;1736138;82;21238;-73
2021/07/21 04:36:00;;;;;;;11.95;7.05;;;;;;;16.01;86.41;98386.44;1736409;82;21556;-75
2021/07/21 04:38:27;;;;;;;7.47;4.97;;;;;;;16.02;86.19;98388.61;1736071;82;20954;-73
2021/07/21 04:40:53;;;;;;;10.63;6.70;;;;;;;15.99;86.14;98387.87;1736174;82;21375;-75
2021/07/21 04:43:19;;;;;;;12.65;6.17;;;;;;;16.03;86.11;98388.30;1736489;82;20966;-75
2021/07/21 04:45:48;;;;;;;9.93;6.10;;;;;;;16.07;86.10;98394.78;1736149;82;21200;-75
2021/07/21 04:48:14;;;;;;;6.92;5.03;;;;;;;16.11;86.04;98390.06;1715580;82;20955;-76
2021/07/21 04:50:44;;;;;;;9.55;5.92;;;;;;;16.16;85.99;98396.23;1736119;82;21051;-76
2021/07/21 04:53:11;;;;;;;11.68;5.12;;;;;;;16.23;86.05;98396.61;1736245;82;21448;-72
2021/07/21 04:55:41;;;;;;;6.83;4.97;;;;;;;16.30;85.72;98401.09;1736062;82;20919;-73
2021/07/21 04:58:07;;;;;;;10.20;6.08;;;;;;;16.34;85.48;98407.59;1691998;82;21441;-74
2021/07/21 05:00:36;;;;;;;9.58;6.12;;;;;;;16.37;84.74;98407.52;1736095;82;20835;-74
2021/07/21 05:03:05;;;;;;;10.32;6.87;;;;;;;16.23;84.82;98401.27;1736305;82;21026;-76
2021/07/21 05:05:29;;;;;;;10.00;6.55;;;;;;;16.22;85.07;98399.66;1735980;82;21380;-74
2021/07/21 05:07:58;;;;;;;11.88;5.50;;;;;;;16.40;84.90;98399.25;1736378;82;20918;-74
2021/07/21 05:10:23;;;;;;;13.98;6.08;;;;;;;16.53;84.97;98399.78;1736100;82;21312;-73
2021/07/21 05:12:49;;;;;;;6.78;5.17;;;;;;;16.68;84.69;98396.69;1736206;82;20945;-73
2021/07/21 05:15:16;;;;;;;8.60;6.03;;;;;;;16.75;84.42;98397.10;1736234;82;20957;-75
2021/07/21 05:17:42;;;;;;;10.68;5.62;;;;;;;16.98;83.68;98397.88;1736234;82;20910;-73
2021/07/21 05:20:09;;;;;;;10.70;5.60;;;;;;;17.06;83.38;98397.69;1736268;82;20976;-74
2021/07/21 05:22:35;;;;;;;8.70;4.20;;;;;;;17.17;82.22;98403.95;1736131;82;21898;-75
2021/07/21 05:25:00;;;;;;;7.87;5.22;;;;;;;17.27;82.37;98399.36;1736147;81;20894;-75
2021/07/21 05:27:26;;;;;;;8.73;4.97;;;;;;;17.33;82.22;98401.63;1736252;82;21148;-73
2021/07/21 05:29:52;;;;;;;10.38;5.40;;;;;;;17.38;81.17;98400.14;1736130;82;21480;-73
2021/07/21 05:32:18;;;;;;;10.35;5.80;;;;;;;17.25;80.41;98406.50;1736497;81;20855;-75
2021/07/21 05:34:44;;;;;;;16.60;7.25;;;;;;;17.17;81.08;98414.09;1736243;82;21108;-75
2021/07/21 05:37:10;;;;;;;10.05;6.20;;;;;;;17.23;81.55;98414.78;1736341;82;20954;-75
2021/07/21 05:39:36;;;;;;;10.13;5.80;;;;;;;17.34;81.43;98420.23;1736308;82;21014;-73
2021/07/21 05:42:03;;;;;;;16.52;5.55;;;;;;;17.38;81.00;98415.77;1734498;82;20847;-73
2021/07/21 05:44:28;;;;;;;16.85;5.45;;;;;;;17.42;80.83;98416.17;1728533;83;20967;-75
2021/07/21 05:46:54;;;;;;;7.72;4.65;;;;;;;17.49;79.78;98412.42;1728309;83;20983;-73
2021/07/21 05:49:21;;;;;;;6.28;4.80;;;;;;;17.44;78.96;98423.54;1728329;83;20851;-73
2021/07/21 05:51:47;;;;;;;13.72;5.72;;;;;;;17.35;79.47;98419.95;1728418;82;21526;-73
2021/07/21 05:54:14;;;;;;;6.50;4.83;;;;;;;17.43;78.78;98419.72;1728399;82;20871;-75
2021/07/21 05:56:40;;;;;;;11.12;6.00;;;;;;;17.51;77.52;98420.32;1728324;83;21601;-73
2021/07/21 05:59:06;;;;;;;10.50;5.30;;;;;;;17.55;78.35;98421.89;1728424;83;21897;-76
2021/07/21 06:01:32;;;;;;;6.67;5.53;;;;;;;17.77;77.69;98427.31;1728345;83;20863;-77
2021/07/21 06:03:58;;;;;;;8.33;4.50;;;;;;;17.82;77.35;98424.44;1728838;82;20966;-76
2021/07/21 06:06:24;;;;;;;6.55;4.40;;;;;;;18.02;77.51;98429.33;1728028;82;21078;-77
2021/07/21 06:08:50;;;;;;;8.53;5.05;;;;;;;18.18;76.41;98433.81;1728450;83;20942;-76
2021/07/21 06:11:19;;;;;;;9.83;6.03;;;;;;;18.32;75.96;98429.58;1707454;83;22024;-73
2021/07/21 06:13:44;;;;;;;8.43;5.35;;;;;;;18.52;75.71;98429.52;1728200;82;22147;-73
2021/07/21 06:16:10;;;;;;;7.75;5.00;;;;;;;18.70;74.87;98435.28;1728119;83;20934;-76
2021/07/21 06:18:37;;;;;;;6.08;4.72;;;;;;;18.96;75.00;98432.52;1728152;82;20943;-73
2021/07/21 06:21:03;;;;;;;9.08;4.80;;;;;;;19.16;73.13;98428.31;1728113;83;21580;-73
2021/07/21 06:23:29;;;;;;;7.37;4.08;;;;;;;19.16;73.55;98435.98;1728033;82;21100;-76
2021/07/21 06:25:55;;;;;;;11.33;5.50;;;;;;;19.27;73.06;98438.39;1728181;83;20823;-73
2021/07/21 06:28:21;;;;;;;7.47;5.75;;;;;;;19.38;72.73;98437.70;1728105;82;20983;-75
2021/07/21 06:30:47;;;;;;;8.63;4.95;;;;;;;19.51;72.06;98433.73;1728170;83;20914;-76
2021/07/21 06:33:17;;;;;;;16.67;5.97;;;;;;;19.72;70.94;98438.76;1728157;83;21328;-73
2021/07/21 06:35:41;;;;;;;7.50;4.90;;;;;;;20.02;69.56;98436.06;1728200;82;21451;-76
2021/07/21 06:38:07;;;;;;;8.38;4.55;;;;;;;20.19;68.85;98442.27;1728230;83;22235;-76
2021/07/21 06:40:33;;;;;;;13.48;5.40;;;;;;;20.25;68.87;98444.23;1684231;83;21049;-76
2021/07/21 06:42:59;;;;;;;8.63;4.67;;;;;;;20.29;66.93;98449.33;1728256;82;20902;-76
2021/07/21 06:45:25;;;;;;;6.75;4.83;;;;;;;20.26;65.83;98450.01;1728238;83;21501;-73
2021/07/21 06:47:51;;;;;;;7.92;4.53;;;;;;;20.18;65.98;98455.80;1728263;83;21700;-73
2021/07/21 06:50:17;;;;;;;7.80;4.05;;;;;;;20.09;63.15;98454.23;1728245;83;20847;-73
2021/07/21 06:52:44;;;;;;;7.12;4.10;;;;;;;20.17;64.60;98450.05;1728155;82;20827;-73
2021/07/21 06:55:10;;;;;;;7.35;4.80;;;;;;;20.26;64.99;98458.26;1728294;83;20967;-73
2021/07/21 06:57:36;;;;;;;10.20;4.90;;;;;;;20.32;64.85;98458.28;1728187;82;21384;-73
2021/07/21 07:00:08;;;;;;;10.43;5.22;;;;;;;20.34;65.22;98451.91;1728236;82;21144;-73
2021/07/21 07:03:10;;;;;;;21.60;6.58;;;;;;;20.41;65.27;98456.28;1728230;83;20903;-76
2021/07/21 07:05:38;;;;;;;12.13;6.50;;;;;;;20.56;65.80;98450.80;1716535;82;21022;-73
2021/07/21 07:08:04;;;;;;;10.08;4.62;;;;;;;21.02;65.20;98452.55;1728117;82;20931;-76
2021/07/21 07:10:30;;;;;;;7.85;4.75;;;;;;;21.06;64.00;98452.67;1728244;83;21010;-73
2021/07/21 07:12:57;;;;;;;6.62;4.75;;;;;;;21.02;64.72;98455.84;1728092;83;21195;-72
2021/07/21 07:15:23;;;;;;;12.45;5.20;;;;;;;21.15;63.61;98451.21;1728212;83;20940;-76
2021/07/21 07:17:49;;;;;;;9.15;4.58;;;;;;;21.60;61.90;98454.01;1728419;83;20987;-76
2021/07/21 07:20:15;;;;;;;8.73;4.00;;;;;;;21.65;61.49;98449.09;1706092;83;20875;-73
2021/07/21 07:22:42;;;;;;;7.45;4.37;;;;;;;21.68;56.47;98455.86;1728287;82;21415;-73
2021/07/21 07:25:08;;;;;;;7.72;4.67;;;;;;;21.88;61.16;98458.33;1728149;83;21193;-76
2021/07/21 07:27:34;;;;;;;8.23;4.28;;;;;;;21.98;59.16;98456.48;1728187;82;21312;-76
2021/07/21 07:30:00;;;;;;;8.35;5.05;;;;;;;21.98;60.07;98456.48;1728289;82;20976;-77
2021/07/21 07:32:26;;;;;;;8.05;3.98;;;;;;;21.79;57.31;98463.11;1728202;82;20808;-72
2021/07/21 07:34:52;;;;;;;7.03;4.30;;;;;;;21.73;56.76;98463.92;1728324;83;20867;-73
2021/07/21 07:37:18;;;;;;;8.25;5.05;;;;;;;21.44;56.26;98455.80;1728296;83;22006;-73
2021/07/21 07:39:44;;;;;;;14.68;5.35;;;;;;;21.78;57.53;98460.93;1728234;82;20875;-76
2021/07/21 07:42:10;;;;;;;8.53;5.12;;;;;;;21.84;54.80;98460.95;1728098;83;20943;-73
2021/07/21 07:44:36;;;;;;;11.30;5.12;;;;;;;22.29;56.95;98461.44;1728248;83;21463;-76
2021/07/21 07:47:03;;;;;;;8.25;4.67;;;;;;;22.72;56.10;98460.00;1728192;82;20903;-73
2021/07/21 07:49:31;;;;;;;6.42;4.67;;;;;;;22.33;53.55;98461.57;1728163;82;21796;-76
2021/07/21 07:51:57;;;;;;;6.45;4.67;;;;;;;22.60;52.63;98462.22;1727982;82;20891;-76
2021/07/21 07:54:23;;;;;;;7.12;4.22;;;;;;;22.96;53.85;98463.30;1728121;83;20943;-73
2021/07/21 07:56:49;;;;;;;6.30;4.20;;;;;;;23.18;52.58;98460.59;1728011;82;21379;-76
2021/07/21 07:59:16;;;;;;;9.50;4.53;;;;;;;23.34;50.90;98472.50;1728257;83;20931;-72
2021/07/21 08:01:42;;;;;;;7.53;4.33;;;;;;;23.85;50.93;98464.39;1728091;82;21136;-73
2021/07/21 08:04:08;;;;;;;8.20;4.50;;;;;;;24.40;51.98;98459.23;1728340;83;20879;-74
2021/07/21 08:06:34;;;;;;;8.03;4.17;;;;;;;24.86;51.26;98463.61;1707388;83;20906;-77
2021/07/21 08:09:03;;;;;;;7.85;4.58;;;;;;;24.47;48.47;98466.33;1728241;83;20967;-77
2021/07/21 08:11:55;;;;;;;7.50;5.00;;;;;;;24.61;47.76;98463.64;1727933;83;20975;-77
2021/07/21 08:14:21;;;;;;;9.65;6.90;;;;;;;24.95;49.27;98461.45;1728097;82;21103;-74
2021/07/21 08:16:48;;;;;;;6.17;4.80;;;;;;;25.59;47.81;98468.28;1707027;83;21034;-77
2021/07/21 08:19:14;;;;;;;10.50;4.30;;;;;;;25.21;46.36;98463.59;1728994;82;20919;-74
2021/07/21 08:21:41;;;;;;;6.30;4.45;;;;;;;25.41;46.46;98465.76;1727959;82;21502;-74
2021/07/21 08:24:07;;;;;;;8.38;5.10;;;;;;;26.10;47.71;98462.45;1728350;83;21304;-74
2021/07/21 08:26:33;;;;;;;6.22;3.55;;;;;;;25.75;46.41;98466.02;1728337;83;21079;-77
2021/07/21 08:28:59;;;;;;;7.83;3.85;;;;;;;24.72;46.78;98471.63;1728448;82;20918;-77
2021/07/21 08:31:24;;;;;;;9.18;5.00;;;;;;;24.76;47.39;98469.73;1728036;83;20859;-77
2021/07/21 08:33:50;;;;;;;10.48;3.92;;;;;;;24.70;47.61;98473.38;1728391;83;21472;-74
2021/07/21 08:36:16;;;;;;;8.25;5.12;;;;;;;25.51;47.33;98476.84;1728429;82;20855;-74
2021/07/21 08:38:43;;;;;;;6.22;4.08;;;;;;;25.24;46.27;98476.72;1728493;83;21213;-74
2021/07/21 08:41:09;;;;;;;6.60;4.25;;;;;;;25.47;45.10;98473.20;1728067;83;21371;-77
2021/07/21 08:43:40;;;;;;;8.13;4.83;;;;;;;25.46;45.87;98482.67;1727739;82;20935;-76
2021/07/21 08:46:04;;;;;;;5.62;4.00;;;;;;;26.40;45.50;98479.80;1727547;82;20946;-74
2021/07/21 08:48:30;;;;;;;5.90;4.08;;;;;;;26.33;43.68;98479.69;1728372;82;20978;-74
2021/07/21 08:50:56;;;;;;;8.20;4.28;;;;;;;26.86;42.97;98474.13;1728226;83;21181;-77
2021/07/21 08:53:22;;;;;;;6.17;3.90;;;;;;;26.96;42.71;98477.64;1727857;83;20887;-74
2021/07/21 08:55:49;;;;;;;14.10;4.90;;;;;;;27.81;40.80;98475.09;1728167;83;20986;-74
2021/07/21 08:58:17;;;;;;;7.08;3.77;;;;;;;26.91;41.19;98477.95;1728170;82;20968;-77
2021/07/21 09:00:43;;;;;;;12.95;4.92;;;;;;;27.48;40.49;98478.09;1707968;82;20924;-74
2021/07/21 09:03:09;;;;;;;12.37;4.87;;;;;;;28.23;40.28;98474.66;1728017;82;21329;-74
2021/07/21 09:05:35;;;;;;;6.65;4.28;;;;;;;29.02;39.90;98480.80;1728110;83;21146;-78
2021/07/21 09:08:02;;;;;;;7.47;4.03;;;;;;;27.79;39.17;98486.61;1728268;82;21384;-78
2021/07/21 09:10:28;;;;;;;9.45;4.40;;;;;;;26.18;42.79;98482.02;1728165;83;21368;-73
2021/07/21 09:12:54;;;;;;;14.40;4.80;;;;;;;25.55;43.75;98481.30;1728633;82;21493;-77
2021/07/21 09:15:22;;;;;;;9.33;4.40;;;;;;;26.61;42.12;98485.70;1707932;83;21332;-74
2021/07/21 09:18:10;;;;;;;;;;;;;;;26.47;42.81;98483.28;1730798;82;21002;-77
2021/07/21 09:20:45;;;;;;;7.67;4.20;;;;;;;26.11;41.96;98482.69;1728618;82;20443;-78
2021/07/21 09:23:11;;;;;;;7.67;4.20;;;;;;;27.36;41.03;98481.74;1728185;82;20950;-73
2021/07/21 09:25:38;;;;;;;10.28;4.55;;;;;;;27.99;38.98;98483.61;1728715;83;21084;-73
2021/07/21 09:28:11;;;;;;;6.15;4.37;;;;;;;27.63;38.51;98481.84;1728530;82;21707;-73
2021/07/21 09:30:41;;;;;;;7.03;4.65;;;;;;;27.80;39.13;98481.84;1728137;83;20904;-77
2021/07/21 09:33:15;;;;;;;7.03;3.50;;;;;;;29.78;38.18;98475.09;1728098;82;21002;-77
2021/07/21 09:35:47;;;;;;;7.62;3.67;;;;;;;28.86;35.99;98478.29;1707829;83;20954;-78
2021/07/21 09:38:18;;;;;;;8.25;4.65;;;;;;;29.90;36.23;98473.89;1728133;83;20899;-78
2021/07/21 09:40:48;;;;;;;8.78;4.55;;;;;;;30.54;33.47;98474.72;1728474;82;21148;-78
2021/07/21 09:43:17;;;;;;;5.97;4.25;;;;;;;29.35;35.33;98476.95;1728028;82;20940;-78
2021/07/21 09:46:33;;;;;;;6.78;4.58;;;;;;;29.85;35.83;98467.33;1727992;82;20891;-74
2021/07/21 09:48:59;;;;;;;9.58;4.05;;;;;;;29.95;33.92;98470.13;1728518;82;20990;-74
2021/07/21 09:51:34;;;;;;;8.23;3.70;;;;;;;29.95;33.92;98470.13;1728326;83;20863;-78
2021/07/21 09:54:17;;;;;;;10.50;3.92;;;;;;;30.93;33.06;98474.45;1728401;82;21439;-78
2021/07/21 09:56:46;;;;;;;8.40;4.08;;;;;;;31.05;31.48;98475.42;1728263;82;21320;-74
2021/07/21 09:59:30;;;;;;;8.50;3.42;;;;;;;30.63;31.57;98473.52;1728481;82;20947;-74
2021/07/21 10:01:56;;;;;;;6.42;3.80;;;;;;;31.68;31.98;98465.92;1728190;82;20892;-79
2021/07/21 10:04:38;;;;;;;9.35;4.33;;;;;;;32.65;30.77;98471.61;1728724;83;20995;-79
2021/07/21 10:09:39;;;;;;;6.62;3.60;;;;;;;32.39;28.53;98470.27;1718258;82;21007;-78
2021/07/21 10:12:19;;;;;;;5.05;3.17;;;;;;;33.93;29.35;98459.41;1707613;83;20919;-75
2021/07/21 10:14:56;;;;;;;8.23;3.35;;;;;;;33.42;26.48;98465.55;1728044;83;21081;-75
2021/07/21 10:17:22;;;;;;;7.20;3.60;;;;;;;33.53;28.82;98464.78;1728221;83;20911;-75
2021/07/21 10:19:48;;;;;;;5.62;3.30;;;;;;;33.66;29.32;98462.97;1728637;82;21384;-75
2021/07/21 10:22:14;;;;;;;5.05;3.45;;;;;;;32.52;27.81;98465.71;1728421;82;20894;-79
2021/07/21 10:24:40;;;;;;;4.97;3.60;;;;;;;33.65;27.72;98459.97;1727955;83;21407;-75
2021/07/21 10:27:06;;;;;;;23.05;5.78;;;;;;;31.87;28.82;98466.63;1728235;82;20823;-79
2021/07/21 10:29:33;;;;;;;10.13;3.72;;;;;;;33.19;27.64;98461.99;1728508;83;20911;-75
2021/07/21 10:31:59;;;;;;;10.60;4.25;;;;;;;33.15;28.03;98461.23;1728282;83;21663;-78
2021/07/21 10:34:26;;;;;;;6.60;3.95;;;;;;;34.63;27.07;98462.25;1728203;83;20840;-75
2021/07/21 10:36:52;;;;;;;7.62;3.27;;;;;;;34.06;25.60;98467.41;1728129;82;21013;-75
2021/07/21 10:39:22;;;;;;;11.38;4.15;;;;;;;32.77;25.54;98466.86;1728426;83;20966;-75
2021/07/21 10:41:48;;;;;;;8.03;4.20;;;;;;;34.08;25.83;98462.16;1663926;83;21038;-77
2021/07/21 10:44:16;;;;;;;6.97;4.03;;;;;;;31.94;27.99;98463.78;1728195;82;20851;-77
2021/07/21 10:46:48;;;;;;;7.87;3.95;;;;;;;32.79;27.90;98459.42;1728142;83;20915;-74
2021/07/21 10:49:32;;;;;;;9.83;4.35;;;;;;;32.81;26.59;98452.78;1728461;82;21010;-75
2021/07/21 11:00:19;;;;;;;14.75;4.37;;;;;;;32.44;26.21;98454.98;1728023;82;20979;-74
2021/07/21 11:02:47;;;;;;;6.65;4.33;;;;;;;32.36;27.04;98454.25;1727139;83;20970;-75
2021/07/21 11:05:37;;;;;;;9.63;4.00;;;;;;;32.11;28.14;98457.23;1728598;83;21037;-74
2021/07/21 11:08:04;;;;;;;6.90;4.75;;;;;;;28.36;32.96;98454.28;1728120;83;20986;-78
2021/07/21 11:10:38;;;;;;;6.33;3.95;;;;;;;30.23;31.57;98451.79;1728345;83;21132;-75
2021/07/21 11:13:08;;;;;;;9.63;4.25;;;;;;;31.17;29.57;98449.17;1728133;82;20903;-78
2021/07/21 11:15:43;;;;;;;7.10;4.65;;;;;;;31.03;29.35;98456.25;1728204;82;20986;-78
2021/07/21 11:18:27;;;;;;;5.30;3.75;;;;;;;33.10;27.61;98454.69;1728080;82;21396;-78
2021/07/21 11:21:03;;;;;;;7.35;3.45;;;;;;;32.72;27.64;98450.47;1728322;82;20955;-75
2021/07/21 11:23:55;;;;;;;7.17;4.55;;;;;;;32.69;27.08;98452.72;1728170;82;21258;-74
2021/07/21 11:26:39;;;;;;;12.68;7.80;;;;;;;33.59;26.58;98448.26;1728103;83;21482;-78
2021/07/21 11:29:33;;;;;;;7.08;4.45;;;;;;;33.42;26.42;98446.50;1728270;82;20912;-76
2021/07/21 11:31:58;;;;;;;6.92;4.12;;;;;;;30.00;29.85;98450.19;1727084;82;20946;-74
2021/07/21 11:34:32;;;;;;;22.30;4.58;;;;;;;28.61;33.87;98458.62;1728628;82;20940;-75
2021/07/21 11:37:18;;;;;;;31.60;6.72;;;;;;;26.90;36.38;98456.90;1728166;82;20990;-78
2021/07/21 11:39:50;;;;;;;14.13;4.95;;;;;;;26.46;37.27;98457.48;1728171;83;21049;-77
2021/07/21 11:42:29;;;;;;;11.22;4.65;;;;;;;25.64;39.24;98460.81;1728124;82;21332;-77
2021/07/21 11:45:16;;;;;;;6.90;3.77;;;;;;;25.00;40.52;98460.34;1734123;82;20931;-74
2021/07/21 11:47:46;;;;;;;9.80;4.33;;;;;;;24.75;41.24;98455.66;1736285;82;20974;-74
2021/07/21 11:50:18;;;;;;;8.85;4.15;;;;;;;24.30;42.54;98461.73;1736321;82;21849;-76
2021/07/21 11:52:56;;;;;;;8.58;4.37;;;;;;;24.05;43.49;98459.74;1735761;81;21017;-72
2021/07/21 11:55:26;;;;;;;7.78;4.87;;;;;;;23.93;42.64;98463.41;1717630;82;21021;-71